createdAt,value
2023-03-26T00:00:15.041Z,0.80
2023-03-26T00:02:45.380Z,1.13
2023-03-26T00:05:17.902Z,0.95
2023-03-26T00:07:48.868Z,1.13
2023-03-26T00:10:18.647Z,0.82
2023-03-26T00:12:48.229Z,0.93
2023-03-26T00:15:17.988Z,0.90
2023-03-26T00:17:48.066Z,0.63
2023-03-26T00:20:20.470Z,1.10
2023-03-26T00:22:51.267Z,0.80
2023-03-26T00:25:21.703Z,1.35
2023-03-26T00:27:51.584Z,1.02
2023-03-26T00:30:21.569Z,1.05
2023-03-26T00:32:53.875Z,1.15
2023-03-26T00:35:26.553Z,0.98
2023-03-26T00:37:56.522Z,1.17
2023-03-26T00:40:26.188Z,0.93
2023-03-26T00:42:56.292Z,0.75
2023-03-26T00:45:26.028Z,0.70
2023-03-26T00:47:55.811Z,1.08
2023-03-26T00:50:28.280Z,1.10
2023-03-26T00:52:59.096Z,1.00
2023-03-26T00:55:28.930Z,1.02
2023-03-26T00:57:58.673Z,0.77
2023-03-26T01:00:32.013Z,0.90
2023-03-26T01:03:01.830Z,1.17
2023-03-26T01:05:48.977Z,0.93
2023-03-26T01:08:30.921Z,1.30
2023-03-26T01:11:07.461Z,1.27
2023-03-26T01:13:38.821Z,1.20
2023-03-26T01:16:10.185Z,1.35
2023-03-26T01:18:41.318Z,1.17
2023-03-26T01:21:14.832Z,0.98
2023-03-26T01:23:49.138Z,1.30
2023-03-26T01:26:30.500Z,1.08
2023-03-26T01:29:01.856Z,1.13
2023-03-26T01:31:37.425Z,1.33
2023-03-26T01:34:12.498Z,1.33
2023-03-26T01:36:45.057Z,1.35
2023-03-26T01:39:19.450Z,1.58
2023-03-26T01:41:54.209Z,1.20
2023-03-26T01:44:27.506Z,1.00
2023-03-26T01:46:57.635Z,1.15
2023-03-26T01:49:29.802Z,0.77
2023-03-26T01:52:00.045Z,1.00
2023-03-26T01:54:31.474Z,0.98
2023-03-26T01:57:08.506Z,0.80
2023-03-26T01:59:56.445Z,1.10
2023-03-26T02:02:30.895Z,1.27
2023-03-26T02:05:04.376Z,1.33
2023-03-26T02:07:38.174Z,1.58
2023-03-26T02:10:13.405Z,1.33
2023-03-26T02:12:46.361Z,0.95
2023-03-26T02:15:17.459Z,1.27
2023-03-26T02:17:47.201Z,1.10
2023-03-26T02:20:19.046Z,1.00
2023-03-26T02:22:49.393Z,1.02
2023-03-26T02:25:23.193Z,1.10
2023-03-26T02:27:56.482Z,1.30
2023-03-26T02:30:29.947Z,1.25
2023-03-26T02:33:02.313Z,1.42
2023-03-26T02:35:41.877Z,1.08
2023-03-26T02:38:14.679Z,1.35
2023-03-26T02:40:44.963Z,1.17
2023-03-26T02:43:17.403Z,1.15
2023-03-26T02:45:47.214Z,1.70
2023-03-26T02:48:35.786Z,1.30
2023-03-26T02:51:14.620Z,1.40
2023-03-26T02:54:04.690Z,1.10
2023-03-26T02:56:40.666Z,1.17
2023-03-26T02:59:36.290Z,1.25
2023-03-26T03:02:41.498Z,0.68
2023-03-26T03:05:27.101Z,1.27
2023-03-26T03:08:18.583Z,1.42
2023-03-26T03:11:15.225Z,1.00
2023-03-26T03:13:47.713Z,1.13
2023-03-26T03:16:31.954Z,0.98
2023-03-26T03:19:06.763Z,1.05
2023-03-26T03:21:39.857Z,1.40
2023-03-26T03:24:11.788Z,1.00
2023-03-26T03:26:50.463Z,1.00
2023-03-26T03:29:43.630Z,1.55
2023-03-26T03:32:36.002Z,1.48
2023-03-26T03:35:07.938Z,1.60
2023-03-26T03:37:38.050Z,1.30
2023-03-26T03:40:11.271Z,1.02
2023-03-26T03:42:42.143Z,1.25
2023-03-26T03:45:13.339Z,1.40
2023-03-26T03:47:52.163Z,1.75
2023-03-26T03:50:29.409Z,1.05
2023-03-26T03:53:29.096Z,1.73
2023-03-26T03:56:02.250Z,1.35
2023-03-26T03:58:50.528Z,1.48
2023-03-26T04:01:30.917Z,1.13
2023-03-26T04:04:26.184Z,1.38
2023-03-26T04:07:04.728Z,1.48
2023-03-26T04:09:53.436Z,0.85
2023-03-26T04:12:25.637Z,1.45
2023-03-26T04:15:02.373Z,1.25
2023-03-26T04:17:34.275Z,1.13
2023-03-26T04:20:10.088Z,1.30
2023-03-26T04:22:41.338Z,1.70
2023-03-26T04:25:12.174Z,3.03
2023-03-26T04:27:51.352Z,5.05
2023-03-26T04:30:33.872Z,2.30
2023-03-26T04:33:15.736Z,1.83
2023-03-26T04:35:49.430Z,1.20
2023-03-26T04:38:20.297Z,1.30
2023-03-26T04:40:53.552Z,1.98
2023-03-26T04:43:47.491Z,1.77
2023-03-26T04:46:46.491Z,1.75
2023-03-26T04:49:22.764Z,1.88
2023-03-26T04:51:56.071Z,1.70
2023-03-26T04:54:44.886Z,1.50
2023-03-26T04:57:19.349Z,1.48
2023-03-26T04:59:53.438Z,1.08
2023-03-26T05:02:23.586Z,1.58
2023-03-26T05:04:57.341Z,2.15
2023-03-26T05:07:33.573Z,2.17
2023-03-26T05:10:04.131Z,2.05
2023-03-26T05:12:50.385Z,1.40
2023-03-26T05:15:24.678Z,1.23
2023-03-26T05:18:00.519Z,1.95
2023-03-26T05:20:38.623Z,1.48
2023-03-26T05:23:13.190Z,1.38
2023-03-26T05:25:49.079Z,1.63
2023-03-26T05:28:24.656Z,1.05
2023-03-26T05:30:58.804Z,1.75
2023-03-26T05:33:31.094Z,1.65
2023-03-26T05:36:07.197Z,1.42
2023-03-26T05:38:39.817Z,1.30
2023-03-26T05:41:13.200Z,1.38
2023-03-26T05:43:47.412Z,1.45
2023-03-26T05:46:23.686Z,1.17
2023-03-26T05:48:54.146Z,1.73
2023-03-26T05:51:24.993Z,1.55
2023-03-26T05:54:17.959Z,1.63
2023-03-26T05:57:06.820Z,1.20
2023-03-26T05:59:55.052Z,1.23
2023-03-26T06:03:03.254Z,1.30
2023-03-26T06:06:01.073Z,1.20
2023-03-26T06:08:43.374Z,1.83
2023-03-26T06:11:15.931Z,1.65
2023-03-26T06:13:46.289Z,1.23
2023-03-26T06:16:27.419Z,1.50
2023-03-26T06:19:30.375Z,1.40
2023-03-26T06:22:04.874Z,1.40
2023-03-26T06:24:43.383Z,1.80
2023-03-26T06:27:38.692Z,1.27
2023-03-26T06:30:28.721Z,1.10
2023-03-26T06:33:08.089Z,1.40
2023-03-26T06:35:45.863Z,1.23
2023-03-26T06:38:19.348Z,1.50
2023-03-26T06:40:49.373Z,1.20
2023-03-26T06:43:33.963Z,1.17
2023-03-26T06:46:18.940Z,1.30
2023-03-26T06:48:57.569Z,1.25
2023-03-26T06:51:47.666Z,1.25
2023-03-26T06:54:31.415Z,1.40
2023-03-26T06:57:27.330Z,1.60
2023-03-26T07:00:38.004Z,1.27
2023-03-26T07:03:36.915Z,1.42
2023-03-26T07:06:25.232Z,1.70
2023-03-26T07:09:18.001Z,1.67
2023-03-26T07:11:47.809Z,2.25
2023-03-26T07:14:46.630Z,1.73
2023-03-26T07:17:47.110Z,1.58
2023-03-26T07:20:19.861Z,1.80
2023-03-26T07:22:50.078Z,1.85
2023-03-26T07:25:36.142Z,1.85
2023-03-26T07:28:38.104Z,1.80
2023-03-26T07:31:30.750Z,1.70
2023-03-26T07:34:33.721Z,1.40
2023-03-26T07:37:25.281Z,0.95
2023-03-26T07:40:18.490Z,1.25
2023-03-26T07:43:01.108Z,1.25
2023-03-26T07:45:36.556Z,1.88
2023-03-26T07:48:43.956Z,1.40
2023-03-26T07:51:25.320Z,1.50
2023-03-26T07:54:13.000Z,1.92
2023-03-26T07:57:06.082Z,1.95
2023-03-26T07:59:47.403Z,1.55
2023-03-26T08:02:31.146Z,1.38
2023-03-26T08:05:41.791Z,1.17
2023-03-26T08:08:29.171Z,1.42
2023-03-26T08:11:24.730Z,1.10
2023-03-26T08:14:01.099Z,1.88
2023-03-26T08:16:34.156Z,1.40
2023-03-26T08:19:06.445Z,1.45
2023-03-26T08:21:39.844Z,1.13
2023-03-26T08:24:16.527Z,1.40
2023-03-26T08:26:51.561Z,1.52
2023-03-26T08:29:23.809Z,1.27
2023-03-26T08:31:53.696Z,1.20
2023-03-26T08:34:23.420Z,1.33
2023-03-26T08:36:53.074Z,1.55
2023-03-26T08:39:25.651Z,1.95
2023-03-26T08:42:13.265Z,1.75
2023-03-26T08:45:01.318Z,1.17
2023-03-26T08:47:45.905Z,1.77
2023-03-26T08:50:23.535Z,1.45
2023-03-26T08:53:08.016Z,1.88
2023-03-26T08:55:46.692Z,1.63
2023-03-26T08:58:40.152Z,2.78
2023-03-26T09:01:15.146Z,1.80
2023-03-26T09:03:59.352Z,1.65
2023-03-26T09:06:43.872Z,1.73
2023-03-26T09:09:24.228Z,1.63
2023-03-26T09:12:11.790Z,1.63
2023-03-26T09:14:56.700Z,1.30
2023-03-26T09:17:37.780Z,1.38
2023-03-26T09:20:33.790Z,1.27
2023-03-26T09:23:15.632Z,1.05
2023-03-26T09:25:55.611Z,1.48
2023-03-26T09:28:38.594Z,2.03
2023-03-26T09:31:19.799Z,1.60
2023-03-26T09:34:10.068Z,2.38
2023-03-26T09:36:46.478Z,1.75
2023-03-26T09:39:20.270Z,2.00
2023-03-26T09:41:55.645Z,2.58
2023-03-26T09:44:39.263Z,1.70
2023-03-26T09:47:31.216Z,1.77
2023-03-26T09:50:05.764Z,1.98
2023-03-26T09:52:57.445Z,1.40
2023-03-26T09:55:36.564Z,2.03
2023-03-26T09:58:12.188Z,1.73
2023-03-26T10:00:44.435Z,1.60
2023-03-26T10:03:21.735Z,1.15
2023-03-26T10:05:58.776Z,1.30
2023-03-26T10:08:37.599Z,1.73
2023-03-26T10:11:12.419Z,1.65
2023-03-26T10:13:45.847Z,1.50
2023-03-26T10:16:23.106Z,1.75
2023-03-26T10:19:02.498Z,1.38
2023-03-26T10:21:38.054Z,1.30
2023-03-26T10:24:14.443Z,1.63
2023-03-26T10:27:08.945Z,1.13
2023-03-26T10:29:46.895Z,1.08
2023-03-26T10:32:25.216Z,1.50
2023-03-26T10:35:01.086Z,1.63
2023-03-26T10:37:41.090Z,1.17
2023-03-26T10:40:17.445Z,1.77
2023-03-26T10:42:56.787Z,1.67
2023-03-26T10:45:34.396Z,1.27
2023-03-26T10:48:16.300Z,1.42
2023-03-26T10:50:52.776Z,1.55
2023-03-26T10:53:31.368Z,1.00
2023-03-26T10:56:03.576Z,1.20
2023-03-26T10:58:48.862Z,1.23
2023-03-26T11:01:25.315Z,1.27
2023-03-26T11:03:55.979Z,1.55
2023-03-26T11:06:32.886Z,1.52
2023-03-26T11:09:12.637Z,1.67
2023-03-26T11:11:47.881Z,1.55
2023-03-26T11:14:31.813Z,1.27
2023-03-26T11:17:06.313Z,1.75
2023-03-26T11:19:39.386Z,1.48
2023-03-26T11:22:15.296Z,1.23
2023-03-26T11:25:00.006Z,1.50
2023-03-26T11:27:36.856Z,1.73
2023-03-26T11:30:12.943Z,1.85
2023-03-26T11:32:44.284Z,1.30
2023-03-26T11:35:40.540Z,1.55
2023-03-26T11:38:14.944Z,1.38
2023-03-26T11:40:49.072Z,2.03
2023-03-26T11:43:32.573Z,1.60
2023-03-26T11:46:02.924Z,1.65
2023-03-26T11:48:34.665Z,1.85
2023-03-26T11:51:06.122Z,1.80
2023-03-26T11:53:38.846Z,1.52
2023-03-26T11:56:15.110Z,1.50
2023-03-26T11:58:50.364Z,1.10
2023-03-26T12:01:22.993Z,1.73
2023-03-26T12:04:00.220Z,1.40
2023-03-26T12:06:30.335Z,1.70
2023-03-26T12:09:00.024Z,1.75
2023-03-26T12:11:34.668Z,1.55
2023-03-26T12:14:08.088Z,1.35
2023-03-26T12:16:37.944Z,1.58
2023-03-26T12:19:08.718Z,1.60
2023-03-26T12:21:46.916Z,1.70
2023-03-26T12:24:31.918Z,1.60
2023-03-26T12:27:04.214Z,1.40
2023-03-26T12:29:37.211Z,1.17
2023-03-26T12:32:08.957Z,1.58
2023-03-26T12:34:39.623Z,1.88
2023-03-26T12:37:10.552Z,1.88
2023-03-26T12:40:09.045Z,1.73
2023-03-26T12:44:47.535Z,1.38
2023-03-26T12:45:31.123Z,1.67
2023-03-26T12:48:03.721Z,1.92
2023-03-26T12:50:39.838Z,1.73
2023-03-26T12:53:18.181Z,1.52
2023-03-26T12:55:52.088Z,1.40
2023-03-26T12:58:29.361Z,1.35
2023-03-26T13:01:06.245Z,1.35
2023-03-26T13:03:44.818Z,1.40
2023-03-26T13:06:24.431Z,1.58
2023-03-26T13:09:05.141Z,1.20
2023-03-26T13:11:38.324Z,1.02
2023-03-26T13:14:13.758Z,1.15
2023-03-26T13:16:49.516Z,1.58
2023-03-26T13:19:23.733Z,2.35
2023-03-26T13:22:03.117Z,1.60
2023-03-26T13:24:37.598Z,1.35
2023-03-26T13:27:15.868Z,1.60
2023-03-26T13:29:50.171Z,1.15
2023-03-26T13:32:27.949Z,1.83
2023-03-26T13:35:02.242Z,0.93
2023-03-26T13:37:35.368Z,0.77
2023-03-26T13:40:13.366Z,1.05
2023-03-26T13:42:47.201Z,1.23
2023-03-26T13:45:20.176Z,1.50
2023-03-26T13:47:53.351Z,1.05
2023-03-26T13:50:25.584Z,1.13
2023-03-26T13:52:57.403Z,1.40
2023-03-26T13:55:29.580Z,1.13
2023-03-26T13:58:03.314Z,1.23
2023-03-26T14:00:35.911Z,1.20
2023-03-26T14:03:16.348Z,1.50
2023-03-26T14:05:48.459Z,1.08
2023-03-26T14:08:20.241Z,1.00
2023-03-26T14:10:53.112Z,1.02
2023-03-26T14:13:25.203Z,0.82
2023-03-26T14:15:58.520Z,1.27
2023-03-26T14:18:36.553Z,1.20
2023-03-26T14:21:16.863Z,1.08
2023-03-26T14:24:05.736Z,1.20
2023-03-26T14:26:44.567Z,1.00
2023-03-26T14:29:27.309Z,0.77
2023-03-26T14:32:02.837Z,1.45
2023-03-26T14:34:49.999Z,1.38
2023-03-26T14:37:28.266Z,1.02
2023-03-26T14:40:16.979Z,0.70
2023-03-26T14:42:56.491Z,1.17
2023-03-26T14:45:32.948Z,1.02
2023-03-26T14:48:14.129Z,0.90
2023-03-26T14:50:55.965Z,1.10
2023-03-26T14:53:30.916Z,0.90
2023-03-26T14:56:17.043Z,0.75
2023-03-26T14:59:01.742Z,1.10
2023-03-26T15:01:33.076Z,0.63
2023-03-26T15:04:17.751Z,0.50
2023-03-26T15:07:06.124Z,0.85
2023-03-26T15:09:59.050Z,0.80
2023-03-26T15:12:36.183Z,0.75
2023-03-26T15:15:20.864Z,0.98
2023-03-26T15:18:06.413Z,1.05
2023-03-26T15:20:47.577Z,1.10
2023-03-26T15:23:32.304Z,0.82
2023-03-26T15:26:14.642Z,0.57
2023-03-26T15:29:06.130Z,0.95
2023-03-26T15:31:59.841Z,0.85
2023-03-26T15:34:44.519Z,0.73
2023-03-26T15:37:29.726Z,1.15
2023-03-26T15:40:20.791Z,0.90
2023-03-26T15:42:56.355Z,0.80
2023-03-26T15:45:37.849Z,0.93
2023-03-26T15:48:26.118Z,0.60
2023-03-26T15:50:57.296Z,1.15
2023-03-26T15:53:33.823Z,0.90
2023-03-26T15:56:10.242Z,1.10
2023-03-26T15:58:48.120Z,0.80
2023-03-26T16:01:23.005Z,1.08
2023-03-26T16:03:57.393Z,1.00
2023-03-26T16:06:33.029Z,0.93
2023-03-26T16:09:17.843Z,0.75
2023-03-26T16:11:58.738Z,1.00
2023-03-26T16:14:44.231Z,0.98
2023-03-26T16:17:15.641Z,1.27
2023-03-26T16:19:52.290Z,1.35
2023-03-26T16:22:42.773Z,0.77
2023-03-26T16:25:27.106Z,0.90
2023-03-26T16:28:13.630Z,1.10
2023-03-26T16:30:46.301Z,1.03
2023-03-26T16:33:17.836Z,1.08
2023-03-26T16:36:02.595Z,1.17
2023-03-26T16:38:50.362Z,1.05
2023-03-26T16:41:20.848Z,1.20
2023-03-26T16:43:54.293Z,1.00
2023-03-26T16:46:31.917Z,1.00
2023-03-26T16:49:06.301Z,0.93
2023-03-26T16:51:48.913Z,0.70
2023-03-26T16:54:22.367Z,0.57
2023-03-26T16:56:56.711Z,0.80
2023-03-26T16:59:39.108Z,1.10
2023-03-26T17:02:18.291Z,0.70
2023-03-26T17:04:49.325Z,0.70
2023-03-26T17:07:22.001Z,1.27
2023-03-26T17:10:02.447Z,1.00
2023-03-26T17:12:37.166Z,1.33
2023-03-26T17:15:10.197Z,1.30
2023-03-26T17:17:49.478Z,1.23
2023-03-26T17:20:26.811Z,1.20
2023-03-26T17:23:01.952Z,1.02
2023-03-26T17:25:36.852Z,1.13
2023-03-26T17:28:22.299Z,0.90
2023-03-26T17:30:58.293Z,1.65
2023-03-26T17:33:35.029Z,1.30
2023-03-26T17:36:18.968Z,1.63
2023-03-26T17:39:01.759Z,2.45
2023-03-26T17:41:46.477Z,1.80
2023-03-26T17:44:31.143Z,1.67
2023-03-26T17:47:02.896Z,1.90
2023-03-26T17:49:36.707Z,2.20
2023-03-26T17:52:08.322Z,2.50
2023-03-26T17:54:41.451Z,2.60
2023-03-26T17:57:15.956Z,2.72
2023-03-26T17:59:46.202Z,2.80
2023-03-26T18:02:17.273Z,2.67
2023-03-26T18:04:51.375Z,2.75
2023-03-26T18:07:35.073Z,2.85
2023-03-26T18:10:29.010Z,3.20
2023-03-26T18:13:08.664Z,3.42
2023-03-26T18:15:45.106Z,5.13
2023-03-26T18:18:18.457Z,3.60
2023-03-26T18:20:52.146Z,2.47
2023-03-26T18:23:26.740Z,1.98
2023-03-26T18:25:59.929Z,1.10
2023-03-26T18:28:33.682Z,1.40
2023-03-26T18:31:11.663Z,1.00
2023-03-26T18:33:45.025Z,1.00
2023-03-26T18:36:18.743Z,0.85
2023-03-26T18:38:49.648Z,1.30
2023-03-26T18:41:24.870Z,1.13
2023-03-26T18:43:54.569Z,1.10
2023-03-26T18:46:26.205Z,1.13
2023-03-26T18:48:57.122Z,0.93
2023-03-26T18:51:31.710Z,0.95
2023-03-26T18:54:03.181Z,0.95
2023-03-26T18:56:34.082Z,0.80
2023-03-26T18:59:04.541Z,0.82
2023-03-26T19:01:35.579Z,0.95
2023-03-26T19:04:07.604Z,0.90
2023-03-26T19:06:42.987Z,0.85
2023-03-26T19:09:30.407Z,1.10
2023-03-26T19:12:07.040Z,0.60
2023-03-26T19:14:37.438Z,0.70
2023-03-26T19:17:09.069Z,0.70
2023-03-26T19:19:39.939Z,0.50
2023-03-26T19:22:13.951Z,0.43
2023-03-26T19:24:44.545Z,0.28
2023-03-26T19:27:14.294Z,0.50
2023-03-26T19:29:45.193Z,0.60
2023-03-26T19:32:19.673Z,0.63
2023-03-26T19:34:50.961Z,0.70
2023-03-26T19:37:25.296Z,0.77
2023-03-26T19:39:56.491Z,0.50
2023-03-26T19:42:43.338Z,0.40
2023-03-26T19:45:18.560Z,0.60
2023-03-26T19:47:57.357Z,0.50
2023-03-26T19:50:36.725Z,0.80
2023-03-26T19:53:17.886Z,0.63
2023-03-26T19:55:57.762Z,0.73
2023-03-26T19:58:28.942Z,0.80
2023-03-26T20:00:59.100Z,0.50
2023-03-26T20:03:31.061Z,0.73
2023-03-26T20:06:00.702Z,0.63
2023-03-26T20:08:33.176Z,0.65
2023-03-26T20:11:02.884Z,0.70
2023-03-26T20:13:32.686Z,0.95
2023-03-26T20:16:06.487Z,0.70
2023-03-26T20:18:37.073Z,0.50
2023-03-26T20:21:11.926Z,0.73
2023-03-26T20:23:44.940Z,0.68
2023-03-26T20:26:15.092Z,0.70
2023-03-26T20:28:48.042Z,0.98
2023-03-26T20:31:19.860Z,0.70
2023-03-26T20:33:50.361Z,1.10
2023-03-26T20:36:33.820Z,0.73
2023-03-26T20:39:08.495Z,0.90
2023-03-26T20:41:39.186Z,0.85
2023-03-26T20:44:13.910Z,1.00
2023-03-26T20:46:43.967Z,1.10
2023-03-26T20:49:15.242Z,0.88
2023-03-26T20:51:45.531Z,1.02
2023-03-26T20:54:21.633Z,0.90
2023-03-26T20:56:51.883Z,0.90
2023-03-26T20:59:26.932Z,1.10
2023-03-26T21:01:57.959Z,1.23
2023-03-26T21:04:28.424Z,1.00
2023-03-26T21:07:07.202Z,0.98
2023-03-26T21:09:45.052Z,0.73
2023-03-26T21:12:19.757Z,1.05
2023-03-26T21:14:49.860Z,1.05
2023-03-26T21:17:21.090Z,1.10
2023-03-26T21:19:52.216Z,1.00
2023-03-26T21:22:26.733Z,0.80
2023-03-26T21:25:03.003Z,0.85
2023-03-26T21:27:37.466Z,1.05
2023-03-26T21:30:09.619Z,1.25
2023-03-26T21:32:39.616Z,1.10
2023-03-26T21:35:10.095Z,0.98
2023-03-26T21:37:40.114Z,0.95
2023-03-26T21:40:16.711Z,0.88
2023-03-26T21:42:47.514Z,1.27
2023-03-26T21:45:17.757Z,1.23
2023-03-26T21:47:47.885Z,1.10
2023-03-26T21:50:18.781Z,0.82
2023-03-26T21:52:51.613Z,0.80
2023-03-26T21:55:25.291Z,1.00
2023-03-26T21:58:07.870Z,0.95
2023-03-26T22:00:44.047Z,1.05
2023-03-26T22:03:17.449Z,1.05
2023-03-26T22:05:51.174Z,0.95
2023-03-26T22:08:24.705Z,1.35
2023-03-26T22:10:57.301Z,1.00
2023-03-26T22:13:27.676Z,1.33
2023-03-26T22:15:57.416Z,1.27
2023-03-26T22:18:30.157Z,0.93
2023-03-26T22:21:00.322Z,1.00
2023-03-26T22:23:36.645Z,0.95
2023-03-26T22:26:09.455Z,1.02
2023-03-26T22:28:39.209Z,1.05
2023-03-26T22:31:10.075Z,1.23
2023-03-26T22:33:40.942Z,1.75
2023-03-26T22:36:22.372Z,1.30
2023-03-26T22:38:54.728Z,1.10
2023-03-26T22:41:27.631Z,1.20
2023-03-26T22:43:59.695Z,1.55
2023-03-26T22:46:33.976Z,1.40
2023-03-26T22:49:04.213Z,1.02
2023-03-26T22:51:33.879Z,1.10
2023-03-26T22:54:03.531Z,1.27
2023-03-26T22:56:36.387Z,1.10
2023-03-26T22:59:06.733Z,1.33
2023-03-26T23:01:36.629Z,1.20
2023-03-26T23:04:06.383Z,1.30
2023-03-26T23:06:36.258Z,0.90
2023-03-26T23:09:07.302Z,1.67
2023-03-26T23:11:39.613Z,1.33
2023-03-26T23:14:09.371Z,1.23
2023-03-26T23:16:39.015Z,1.48
2023-03-26T23:19:08.849Z,1.13
2023-03-26T23:21:39.094Z,2.10
2023-03-26T23:24:09.206Z,1.17
2023-03-26T23:26:50.673Z,1.52
2023-03-26T23:29:21.663Z,1.65
2023-03-26T23:31:53.076Z,1.67
2023-03-26T23:34:23.415Z,1.55
2023-03-26T23:36:54.307Z,1.48
2023-03-26T23:39:26.276Z,1.48
2023-03-26T23:41:58.598Z,1.40
2023-03-26T23:44:29.731Z,1.50
2023-03-26T23:47:00.731Z,1.40
2023-03-26T23:49:30.394Z,1.55
2023-03-26T23:52:01.146Z,1.33
2023-03-26T23:54:30.907Z,1.27
2023-03-26T23:57:03.324Z,1.38
2023-03-26T23:59:33.523Z,1.70
